Arden Hills, Minnesota
Current Conditions -  °F | °C
As of 5:55 PM on Sunday 21 Dec 2014 (Local Time) from KANE Reporting Station
Haze Haze  
Wind Chill:   Ceiling: 400
Heat Index:   Visibility: 1.5mi
Dew Point:   Wind: 7mph
Humidity: 100%   Direction: 150°SSE
Pressure: 29.73"   Gusts: NA
Location:  45.0848°N, 93.136°W
Report Text: KANE 212355Z 15006KT 1 1/2SM BR OVC004 03/03 A2973
Loading
Personal Weather Stations






























Interactive Weather Map New forecast layout! Learn more

10-Day Weather Forecast

Advertisements
Track Severe Weather on mobile